sensor_id;sensor_type;location;lat;lon;timestamp;P1;durP1;ratioP1;P2;durP2;ratioP2
1533;SDS011;760;48.822;9.304;2022-07-05T04:05:30;3.50;;;3.20;;
1533;SDS011;760;48.822;9.304;2022-07-05T04:07:55;3.80;;;3.40;;
1533;SDS011;760;48.822;9.304;2022-07-05T04:10:21;3.90;;;3.60;;
1533;SDS011;760;48.822;9.304;2022-07-05T04:12:48;3.90;;;3.60;;
1533;SDS011;760;48.822;9.304;2022-07-05T04:15:14;3.20;;;3.00;;
1533;SDS011;760;48.822;9.304;2022-07-05T04:17:49;4.43;;;3.90;;
1533;SDS011;760;48.822;9.304;2022-07-05T04:20:17;4.20;;;3.80;;
1533;SDS011;760;48.822;9.304;2022-07-05T04:22:42;3.37;;;3.17;;
1533;SDS011;760;48.822;9.304;2022-07-05T04:25:08;4.07;;;3.77;;
1533;SDS011;760;48.822;9.304;2022-07-05T04:27:47;4.23;;;3.93;;
1533;SDS011;760;48.822;9.304;2022-07-05T04:30:15;3.97;;;3.67;;
1533;SDS011;760;48.822;9.304;2022-07-05T04:32:41;3.90;;;3.40;;
1533;SDS011;760;48.822;9.304;2022-07-05T04:35:07;3.57;;;3.30;;
1533;SDS011;760;48.822;9.304;2022-07-05T04:37:34;3.97;;;3.57;;
1533;SDS011;760;48.822;9.304;2022-07-05T04:40:00;3.27;;;3.07;;
1533;SDS011;760;48.822;9.304;2022-07-05T04:42:26;3.40;;;3.20;;
1533;SDS011;760;48.822;9.304;2022-07-05T04:44:51;3.20;;;3.00;;
1533;SDS011;760;48.822;9.304;2022-07-05T04:47:17;3.80;;;3.50;;
1533;SDS011;760;48.822;9.304;2022-07-05T04:49:43;3.77;;;3.37;;
1533;SDS011;760;48.822;9.304;2022-07-05T04:52:08;4.00;;;3.70;;
1533;SDS011;760;48.822;9.304;2022-07-05T04:54:35;7.57;;;3.47;;
1533;SDS011;760;48.822;9.304;2022-07-05T04:57:01;4.10;;;3.80;;
1533;SDS011;760;48.822;9.304;2022-07-05T04:59:27;4.70;;;4.20;;
1533;SDS011;760;48.822;9.304;2022-07-05T05:01:52;3.60;;;3.40;;
1533;SDS011;760;48.822;9.304;2022-07-05T05:04:18;4.20;;;3.90;;
1533;SDS011;760;48.822;9.304;2022-07-05T05:06:44;3.50;;;3.30;;
1533;SDS011;760;48.822;9.304;2022-07-05T05:09:09;4.30;;;3.90;;
1533;SDS011;760;48.822;9.304;2022-07-05T05:11:35;3.67;;;3.47;;
1533;SDS011;760;48.822;9.304;2022-07-05T05:14:01;3.40;;;3.20;;
1533;SDS011;760;48.822;9.304;2022-07-05T05:16:26;4.70;;;3.27;;
1533;SDS011;760;48.822;9.304;2022-07-05T05:18:52;3.67;;;3.37;;
1533;SDS011;760;48.822;9.304;2022-07-05T05:21:17;4.70;;;4.30;;
1533;SDS011;760;48.822;9.304;2022-07-05T05:23:43;4.13;;;3.83;;
1533;SDS011;760;48.822;9.304;2022-07-05T05:26:09;3.50;;;3.30;;
1533;SDS011;760;48.822;9.304;2022-07-05T05:28:34;4.10;;;3.80;;
1533;SDS011;760;48.822;9.304;2022-07-05T05:31:00;5.17;;;4.13;;
1533;SDS011;760;48.822;9.304;2022-07-05T05:33:25;5.80;;;4.00;;
1533;SDS011;760;48.822;9.304;2022-07-05T05:35:51;4.30;;;4.00;;
1533;SDS011;760;48.822;9.304;2022-07-05T05:38:17;3.57;;;3.27;;
1533;SDS011;760;48.822;9.304;2022-07-05T05:40:42;4.50;;;4.20;;
1533;SDS011;760;48.822;9.304;2022-07-05T05:43:10;3.50;;;3.23;;
1533;SDS011;760;48.822;9.304;2022-07-05T05:45:36;6.37;;;3.60;;
1533;SDS011;760;48.822;9.304;2022-07-05T05:48:02;4.27;;;3.87;;
1533;SDS011;760;48.822;9.304;2022-07-05T05:50:29;3.90;;;3.60;;
1533;SDS011;760;48.822;9.304;2022-07-05T05:52:56;4.47;;;4.07;;
1533;SDS011;760;48.822;9.304;2022-07-05T05:55:23;3.37;;;3.13;;
1533;SDS011;760;48.822;9.304;2022-07-05T05:57:50;3.33;;;3.13;;
1533;SDS011;760;48.822;9.304;2022-07-05T06:00:16;3.03;;;2.73;;
1533;SDS011;760;48.822;9.304;2022-07-05T06:02:43;3.80;;;3.50;;
1533;SDS011;760;48.822;9.304;2022-07-05T06:05:10;2.73;;;2.53;;
1533;SDS011;760;48.822;9.304;2022-07-05T06:07:49;2.90;;;2.70;;
1533;SDS011;760;48.822;9.304;2022-07-05T06:10:21;2.30;;;2.20;;
1533;SDS011;760;48.822;9.304;2022-07-05T06:12:52;2.53;;;2.33;;
1533;SDS011;760;48.822;9.304;2022-07-05T06:15:20;2.47;;;2.27;;
1533;SDS011;760;48.822;9.304;2022-07-05T06:17:45;1.87;;;1.77;;
1533;SDS011;760;48.822;9.304;2022-07-05T06:20:13;2.50;;;2.30;;
1533;SDS011;760;48.822;9.304;2022-07-05T06:22:40;2.60;;;2.30;;
1533;SDS011;760;48.822;9.304;2022-07-05T06:25:07;2.13;;;2.03;;
1533;SDS011;760;48.822;9.304;2022-07-05T06:27:37;1.83;;;1.73;;
1533;SDS011;760;48.822;9.304;2022-07-05T06:30:04;2.20;;;1.70;;
1533;SDS011;760;48.822;9.304;2022-07-05T06:32:30;1.80;;;1.70;;
1533;SDS011;760;48.822;9.304;2022-07-05T06:34:56;1.80;;;1.70;;
1533;SDS011;760;48.822;9.304;2022-07-05T06:37:21;1.70;;;1.60;;
1533;SDS011;760;48.822;9.304;2022-07-05T06:39:47;1.60;;;1.50;;
1533;SDS011;760;48.822;9.304;2022-07-05T06:42:12;6.10;;;1.77;;
1533;SDS011;760;48.822;9.304;2022-07-05T06:44:38;2.50;;;2.30;;
1533;SDS011;760;48.822;9.304;2022-07-05T06:47:04;3.43;;;3.13;;
1533;SDS011;760;48.822;9.304;2022-07-05T06:49:29;1.87;;;1.77;;
1533;SDS011;760;48.822;9.304;2022-07-05T06:51:55;1.70;;;1.60;;
1533;SDS011;760;48.822;9.304;2022-07-05T06:54:23;1.33;;;1.33;;
1533;SDS011;760;48.822;9.304;2022-07-05T06:56:49;1.60;;;1.60;;
1533;SDS011;760;48.822;9.304;2022-07-05T06:59:14;1.50;;;1.43;;
1533;SDS011;760;48.822;9.304;2022-07-05T07:01:40;2.07;;;1.97;;
1533;SDS011;760;48.822;9.304;2022-07-05T07:04:06;2.50;;;1.80;;
1533;SDS011;760;48.822;9.304;2022-07-05T07:06:31;1.87;;;1.77;;
1533;SDS011;760;48.822;9.304;2022-07-05T07:08:57;2.87;;;1.70;;
1533;SDS011;760;48.822;9.304;2022-07-05T07:11:41;2.20;;;2.10;;
1533;SDS011;760;48.822;9.304;2022-07-05T07:14:07;3.17;;;1.70;;
1533;SDS011;760;48.822;9.304;2022-07-05T07:16:32;1.93;;;1.80;;
1533;SDS011;760;48.822;9.304;2022-07-05T07:18:58;2.10;;;1.77;;
1533;SDS011;760;48.822;9.304;2022-07-05T07:21:24;1.97;;;1.87;;
1533;SDS011;760;48.822;9.304;2022-07-05T07:23:49;1.30;;;1.30;;
1533;SDS011;760;48.822;9.304;2022-07-05T07:26:15;2.00;;;1.90;;
1533;SDS011;760;48.822;9.304;2022-07-05T07:28:40;1.90;;;1.80;;
1533;SDS011;760;48.822;9.304;2022-07-05T07:31:06;3.13;;;1.53;;
1533;SDS011;760;48.822;9.304;2022-07-05T07:33:32;2.37;;;2.27;;
1533;SDS011;760;48.822;9.304;2022-07-05T07:35:58;2.27;;;2.17;;
1533;SDS011;760;48.822;9.304;2022-07-05T07:38:24;2.33;;;2.13;;
1533;SDS011;760;48.822;9.304;2022-07-05T07:40:51;1.60;;;1.50;;
1533;SDS011;760;48.822;9.304;2022-07-05T07:43:17;7.80;;;6.60;;
1533;SDS011;760;48.822;9.304;2022-07-05T07:45:43;2.60;;;2.13;;
1533;SDS011;760;48.822;9.304;2022-07-05T07:48:08;2.47;;;1.70;;
1533;SDS011;760;48.822;9.304;2022-07-05T07:50:34;2.20;;;2.10;;
1533;SDS011;760;48.822;9.304;2022-07-05T07:53:00;1.93;;;1.83;;
1533;SDS011;760;48.822;9.304;2022-07-05T07:55:25;1.90;;;1.80;;
1533;SDS011;760;48.822;9.304;2022-07-05T07:57:51;2.20;;;2.00;;
1533;SDS011;760;48.822;9.304;2022-07-05T08:00:17;2.30;;;2.20;;
1533;SDS011;760;48.822;9.304;2022-07-05T08:02:43;3.93;;;1.90;;
1533;SDS011;760;48.822;9.304;2022-07-05T08:05:09;2.10;;;2.00;;
1533;SDS011;760;48.822;9.304;2022-07-05T08:07:37;2.40;;;2.30;;
1533;SDS011;760;48.822;9.304;2022-07-05T08:10:04;2.40;;;2.30;;
1533;SDS011;760;48.822;9.304;2022-07-05T08:12:30;2.10;;;2.00;;
1533;SDS011;760;48.822;9.304;2022-07-05T08:14:55;2.43;;;2.30;;
1533;SDS011;760;48.822;9.304;2022-07-05T08:17:21;2.40;;;2.30;;
1533;SDS011;760;48.822;9.304;2022-07-05T08:19:47;2.30;;;2.20;;
1533;SDS011;760;48.822;9.304;2022-07-05T08:22:31;2.33;;;2.20;;
1533;SDS011;760;48.822;9.304;2022-07-05T08:24:57;1.90;;;1.80;;
1533;SDS011;760;48.822;9.304;2022-07-05T08:27:23;2.10;;;2.00;;
1533;SDS011;760;48.822;9.304;2022-07-05T08:29:51;2.20;;;2.10;;
1533;SDS011;760;48.822;9.304;2022-07-05T08:32:17;2.30;;;2.20;;
1533;SDS011;760;48.822;9.304;2022-07-05T08:34:42;3.17;;;2.33;;
1533;SDS011;760;48.822;9.304;2022-07-05T08:37:08;3.47;;;2.53;;
1533;SDS011;760;48.822;9.304;2022-07-05T08:39:34;2.63;;;2.43;;
1533;SDS011;760;48.822;9.304;2022-07-05T08:42:00;2.93;;;2.70;;
1533;SDS011;760;48.822;9.304;2022-07-05T08:44:27;2.30;;;2.20;;
1533;SDS011;760;48.822;9.304;2022-07-05T08:46:55;2.00;;;1.90;;
1533;SDS011;760;48.822;9.304;2022-07-05T08:49:22;1.97;;;1.90;;
1533;SDS011;760;48.822;9.304;2022-07-05T08:54:30;2.10;;;2.00;;
1533;SDS011;760;48.822;9.304;2022-07-05T08:56:56;2.30;;;2.17;;
1533;SDS011;760;48.822;9.304;2022-07-05T08:59:22;2.23;;;2.03;;
1533;SDS011;760;48.822;9.304;2022-07-05T09:01:48;2.67;;;2.30;;
1533;SDS011;760;48.822;9.304;2022-07-05T09:04:15;1.77;;;1.70;;
1533;SDS011;760;48.822;9.304;2022-07-05T09:06:43;2.10;;;2.00;;
1533;SDS011;760;48.822;9.304;2022-07-05T09:09:12;2.43;;;2.23;;
1533;SDS011;760;48.822;9.304;2022-07-05T09:11:41;2.10;;;2.00;;
1533;SDS011;760;48.822;9.304;2022-07-05T09:17:04;2.00;;;1.90;;
1533;SDS011;760;48.822;9.304;2022-07-05T09:19:30;2.27;;;2.17;;
1533;SDS011;760;48.822;9.304;2022-07-05T09:22:03;1.83;;;1.83;;
1533;SDS011;760;48.822;9.304;2022-07-05T09:24:29;2.53;;;2.43;;
1533;SDS011;760;48.822;9.304;2022-07-05T09:27:01;3.17;;;2.10;;
1533;SDS011;760;48.822;9.304;2022-07-05T09:29:28;2.00;;;1.90;;
1533;SDS011;760;48.822;9.304;2022-07-05T09:31:54;2.20;;;1.87;;
1533;SDS011;760;48.822;9.304;2022-07-05T09:34:20;2.07;;;1.87;;
1533;SDS011;760;48.822;9.304;2022-07-05T09:39:12;2.30;;;2.20;;
1533;SDS011;760;48.822;9.304;2022-07-05T09:41:38;2.30;;;2.20;;
1533;SDS011;760;48.822;9.304;2022-07-05T09:44:03;2.00;;;2.00;;
1533;SDS011;760;48.822;9.304;2022-07-05T09:46:30;2.20;;;2.10;;
1533;SDS011;760;48.822;9.304;2022-07-05T09:48:56;2.30;;;2.20;;
1533;SDS011;760;48.822;9.304;2022-07-05T09:51:21;2.20;;;2.20;;
1533;SDS011;760;48.822;9.304;2022-07-05T09:53:48;2.80;;;2.17;;
1533;SDS011;760;48.822;9.304;2022-07-05T09:56:18;2.40;;;2.30;;
1533;SDS011;760;48.822;9.304;2022-07-05T09:58:45;1.90;;;1.90;;
1533;SDS011;760;48.822;9.304;2022-07-05T10:01:23;2.43;;;1.83;;
1533;SDS011;760;48.822;9.304;2022-07-05T10:03:56;2.10;;;2.00;;
1533;SDS011;760;48.822;9.304;2022-07-05T10:06:23;1.83;;;1.73;;
1533;SDS011;760;48.822;9.304;2022-07-05T10:08:50;2.00;;;1.90;;
1533;SDS011;760;48.822;9.304;2022-07-05T10:11:17;4.23;;;2.20;;
1533;SDS011;760;48.822;9.304;2022-07-05T10:13:44;1.87;;;1.80;;
1533;SDS011;760;48.822;9.304;2022-07-05T10:16:13;1.90;;;1.80;;
1533;SDS011;760;48.822;9.304;2022-07-05T10:18:39;2.10;;;2.00;;
1533;SDS011;760;48.822;9.304;2022-07-05T10:21:06;2.10;;;2.00;;
1533;SDS011;760;48.822;9.304;2022-07-05T10:23:42;1.53;;;1.53;;
1533;SDS011;760;48.822;9.304;2022-07-05T10:26:12;1.20;;;1.20;;
1533;SDS011;760;48.822;9.304;2022-07-05T10:28:39;1.20;;;1.20;;
1533;SDS011;760;48.822;9.304;2022-07-05T10:31:06;1.30;;;1.20;;
1533;SDS011;760;48.822;9.304;2022-07-05T10:33:34;1.40;;;1.30;;
1533;SDS011;760;48.822;9.304;2022-07-05T10:36:00;1.50;;;1.40;;
1533;SDS011;760;48.822;9.304;2022-07-05T10:38:26;1.20;;;1.20;;
1533;SDS011;760;48.822;9.304;2022-07-05T10:40:53;3.27;;;2.97;;
1533;SDS011;760;48.822;9.304;2022-07-05T10:43:22;3.43;;;1.50;;
1533;SDS011;760;48.822;9.304;2022-07-05T10:45:50;1.30;;;1.20;;
1533;SDS011;760;48.822;9.304;2022-07-05T10:48:22;1.20;;;1.20;;
1533;SDS011;760;48.822;9.304;2022-07-05T10:50:56;2.47;;;1.30;;
1533;SDS011;760;48.822;9.304;2022-07-05T10:53:28;1.47;;;1.37;;
1533;SDS011;760;48.822;9.304;2022-07-05T10:56:13;1.40;;;1.30;;
1533;SDS011;760;48.822;9.304;2022-07-05T10:58:40;1.93;;;1.53;;
1533;SDS011;760;48.822;9.304;2022-07-05T11:03:39;1.73;;;1.60;;
1533;SDS011;760;48.822;9.304;2022-07-05T11:06:21;1.30;;;1.30;;
1533;SDS011;760;48.822;9.304;2022-07-05T11:11:44;1.50;;;1.40;;
1533;SDS011;760;48.822;9.304;2022-07-05T11:16:48;1.50;;;1.40;;
1533;SDS011;760;48.822;9.304;2022-07-05T11:19:34;1.43;;;1.43;;
1533;SDS011;760;48.822;9.304;2022-07-05T11:22:19;1.30;;;1.30;;
1533;SDS011;760;48.822;9.304;2022-07-05T11:24:45;1.50;;;1.40;;
1533;SDS011;760;48.822;9.304;2022-07-05T11:27:12;1.80;;;1.20;;
1533;SDS011;760;48.822;9.304;2022-07-05T11:32:13;1.37;;;1.30;;
1533;SDS011;760;48.822;9.304;2022-07-05T11:34:39;1.40;;;1.40;;
1533;SDS011;760;48.822;9.304;2022-07-05T11:42:46;1.80;;;1.70;;
1533;SDS011;760;48.822;9.304;2022-07-05T11:45:12;1.37;;;1.37;;
1533;SDS011;760;48.822;9.304;2022-07-05T11:47:38;1.20;;;1.20;;
1533;SDS011;760;48.822;9.304;2022-07-05T11:50:05;1.20;;;1.20;;
1533;SDS011;760;48.822;9.304;2022-07-05T11:52:31;1.70;;;1.47;;
1533;SDS011;760;48.822;9.304;2022-07-05T11:55:05;1.03;;;1.03;;
1533;SDS011;760;48.822;9.304;2022-07-05T11:57:34;1.13;;;1.13;;
1533;SDS011;760;48.822;9.304;2022-07-05T12:00:01;1.10;;;1.10;;
1533;SDS011;760;48.822;9.304;2022-07-05T12:02:27;0.93;;;0.93;;
1533;SDS011;760;48.822;9.304;2022-07-05T12:04:54;1.00;;;1.00;;
1533;SDS011;760;48.822;9.304;2022-07-05T12:07:27;1.50;;;1.10;;
1533;SDS011;760;48.822;9.304;2022-07-05T12:09:54;2.03;;;1.00;;
1533;SDS011;760;48.822;9.304;2022-07-05T12:12:39;1.10;;;1.10;;
1533;SDS011;760;48.822;9.304;2022-07-05T12:15:10;1.40;;;1.30;;
1533;SDS011;760;48.822;9.304;2022-07-05T12:17:38;1.10;;;1.10;;
1533;SDS011;760;48.822;9.304;2022-07-05T12:20:05;1.07;;;1.07;;
1533;SDS011;760;48.822;9.304;2022-07-05T12:22:34;1.47;;;1.37;;
1533;SDS011;760;48.822;9.304;2022-07-05T12:25:01;6.83;;;2.13;;
1533;SDS011;760;48.822;9.304;2022-07-05T12:27:28;1.20;;;1.20;;
1533;SDS011;760;48.822;9.304;2022-07-05T12:29:56;1.87;;;1.77;;
1533;SDS011;760;48.822;9.304;2022-07-05T12:32:21;1.73;;;1.50;;
1533;SDS011;760;48.822;9.304;2022-07-05T12:34:47;1.20;;;1.20;;
1533;SDS011;760;48.822;9.304;2022-07-05T12:37:22;1.13;;;1.10;;
1533;SDS011;760;48.822;9.304;2022-07-05T12:39:49;1.30;;;1.30;;
1533;SDS011;760;48.822;9.304;2022-07-05T12:42:32;1.50;;;1.40;;
1533;SDS011;760;48.822;9.304;2022-07-05T12:45:09;1.20;;;1.20;;
1533;SDS011;760;48.822;9.304;2022-07-05T12:47:36;1.20;;;1.20;;
1533;SDS011;760;48.822;9.304;2022-07-05T12:50:13;3.50;;;1.30;;
1533;SDS011;760;48.822;9.304;2022-07-05T12:53:02;2.53;;;2.00;;
1533;SDS011;760;48.822;9.304;2022-07-05T12:55:47;1.13;;;1.13;;
1533;SDS011;760;48.822;9.304;2022-07-05T12:58:32;1.97;;;1.53;;
1533;SDS011;760;48.822;9.304;2022-07-05T13:00:58;1.17;;;1.17;;
1533;SDS011;760;48.822;9.304;2022-07-05T13:03:23;1.10;;;1.10;;
1533;SDS011;760;48.822;9.304;2022-07-05T13:06:01;1.20;;;1.20;;
1533;SDS011;760;48.822;9.304;2022-07-05T13:08:28;1.47;;;1.37;;
1533;SDS011;760;48.822;9.304;2022-07-05T13:10:54;4.00;;;1.20;;
1533;SDS011;760;48.822;9.304;2022-07-05T13:13:20;1.47;;;1.40;;
1533;SDS011;760;48.822;9.304;2022-07-05T13:15:45;1.70;;;1.60;;
1533;SDS011;760;48.822;9.304;2022-07-05T13:18:11;1.53;;;1.43;;
1533;SDS011;760;48.822;9.304;2022-07-05T13:20:47;1.70;;;1.40;;
1533;SDS011;760;48.822;9.304;2022-07-05T13:23:14;1.97;;;1.83;;
1533;SDS011;760;48.822;9.304;2022-07-05T13:25:40;1.43;;;1.37;;
1533;SDS011;760;48.822;9.304;2022-07-05T13:28:06;1.80;;;1.67;;
1533;SDS011;760;48.822;9.304;2022-07-05T13:30:31;1.50;;;1.40;;
1533;SDS011;760;48.822;9.304;2022-07-05T13:32:57;2.17;;;1.93;;
1533;SDS011;760;48.822;9.304;2022-07-05T13:35:22;1.60;;;1.50;;
1533;SDS011;760;48.822;9.304;2022-07-05T13:37:48;1.83;;;1.70;;
1533;SDS011;760;48.822;9.304;2022-07-05T13:40:14;1.70;;;1.60;;
1533;SDS011;760;48.822;9.304;2022-07-05T13:42:39;1.47;;;1.37;;
1533;SDS011;760;48.822;9.304;2022-07-05T13:45:05;1.70;;;1.50;;
1533;SDS011;760;48.822;9.304;2022-07-05T13:47:31;2.07;;;1.50;;
1533;SDS011;760;48.822;9.304;2022-07-05T13:49:57;1.90;;;1.80;;
1533;SDS011;760;48.822;9.304;2022-07-05T13:52:41;1.43;;;1.40;;
1533;SDS011;760;48.822;9.304;2022-07-05T13:55:06;1.40;;;1.30;;
1533;SDS011;760;48.822;9.304;2022-07-05T13:57:32;1.30;;;1.30;;
1533;SDS011;760;48.822;9.304;2022-07-05T13:59:58;1.43;;;1.43;;
1533;SDS011;760;48.822;9.304;2022-07-05T14:02:23;2.87;;;1.70;;
1533;SDS011;760;48.822;9.304;2022-07-05T14:04:49;1.90;;;1.80;;
1533;SDS011;760;48.822;9.304;2022-07-05T14:07:15;1.93;;;1.83;;
1533;SDS011;760;48.822;9.304;2022-07-05T14:09:41;1.30;;;1.30;;
1533;SDS011;760;48.822;9.304;2022-07-05T14:12:06;1.53;;;1.53;;
1533;SDS011;760;48.822;9.304;2022-07-05T14:14:32;1.57;;;1.50;;
1533;SDS011;760;48.822;9.304;2022-07-05T14:16:58;1.60;;;1.30;;
1533;SDS011;760;48.822;9.304;2022-07-05T14:19:23;1.40;;;1.40;;
1533;SDS011;760;48.822;9.304;2022-07-05T14:21:49;1.80;;;1.70;;
1533;SDS011;760;48.822;9.304;2022-07-05T14:24:14;1.63;;;1.50;;
1533;SDS011;760;48.822;9.304;2022-07-05T14:26:40;1.83;;;1.73;;
1533;SDS011;760;48.822;9.304;2022-07-05T14:29:06;2.60;;;1.90;;
1533;SDS011;760;48.822;9.304;2022-07-05T14:31:32;2.27;;;2.17;;
1533;SDS011;760;48.822;9.304;2022-07-05T14:33:57;1.67;;;1.67;;
1533;SDS011;760;48.822;9.304;2022-07-05T14:36:23;3.50;;;1.93;;
1533;SDS011;760;48.822;9.304;2022-07-05T14:38:49;1.90;;;1.80;;
1533;SDS011;760;48.822;9.304;2022-07-05T14:41:14;1.80;;;1.70;;
1533;SDS011;760;48.822;9.304;2022-07-05T14:43:41;2.00;;;1.90;;
1533;SDS011;760;48.822;9.304;2022-07-05T14:46:06;1.90;;;1.80;;
1533;SDS011;760;48.822;9.304;2022-07-05T14:48:33;3.00;;;1.90;;
1533;SDS011;760;48.822;9.304;2022-07-05T14:50:58;1.77;;;1.67;;
1533;SDS011;760;48.822;9.304;2022-07-05T14:53:24;2.40;;;2.20;;
1533;SDS011;760;48.822;9.304;2022-07-05T14:55:50;2.10;;;2.00;;
1533;SDS011;760;48.822;9.304;2022-07-05T14:58:15;2.20;;;2.00;;
1533;SDS011;760;48.822;9.304;2022-07-05T15:00:41;2.23;;;1.67;;
1533;SDS011;760;48.822;9.304;2022-07-05T15:03:07;2.90;;;2.63;;
1533;SDS011;760;48.822;9.304;2022-07-05T15:05:34;2.00;;;1.90;;
1533;SDS011;760;48.822;9.304;2022-07-05T15:08:03;3.27;;;2.70;;
1533;SDS011;760;48.822;9.304;2022-07-05T15:10:29;2.40;;;1.93;;
1533;SDS011;760;48.822;9.304;2022-07-05T15:12:55;1.90;;;1.80;;
1533;SDS011;760;48.822;9.304;2022-07-05T15:15:20;2.23;;;2.03;;
1533;SDS011;760;48.822;9.304;2022-07-05T15:17:46;4.67;;;1.70;;
1533;SDS011;760;48.822;9.304;2022-07-05T15:20:11;1.93;;;1.83;;
1533;SDS011;760;48.822;9.304;2022-07-05T15:22:38;2.10;;;2.00;;
1533;SDS011;760;48.822;9.304;2022-07-05T15:25:03;1.47;;;1.37;;
1533;SDS011;760;48.822;9.304;2022-07-05T15:27:29;3.13;;;3.03;;
1533;SDS011;760;48.822;9.304;2022-07-05T15:29:57;2.10;;;2.00;;
1533;SDS011;760;48.822;9.304;2022-07-05T15:32:23;1.83;;;1.73;;
1533;SDS011;760;48.822;9.304;2022-07-05T15:34:52;1.73;;;1.60;;
1533;SDS011;760;48.822;9.304;2022-07-05T15:37:17;1.73;;;1.63;;
1533;SDS011;760;48.822;9.304;2022-07-05T15:39:44;1.63;;;1.53;;
1533;SDS011;760;48.822;9.304;2022-07-05T15:42:09;1.80;;;1.70;;
1533;SDS011;760;48.822;9.304;2022-07-05T15:44:35;1.60;;;1.50;;
1533;SDS011;760;48.822;9.304;2022-07-05T15:47:01;2.00;;;1.87;;
1533;SDS011;760;48.822;9.304;2022-07-05T15:49:34;1.80;;;1.70;;
1533;SDS011;760;48.822;9.304;2022-07-05T15:52:00;1.53;;;1.50;;
1533;SDS011;760;48.822;9.304;2022-07-05T15:54:26;2.30;;;2.20;;
1533;SDS011;760;48.822;9.304;2022-07-05T15:56:52;3.07;;;2.23;;
1533;SDS011;760;48.822;9.304;2022-07-05T15:59:19;2.03;;;1.93;;
1533;SDS011;760;48.822;9.304;2022-07-05T16:01:44;1.80;;;1.70;;
1533;SDS011;760;48.822;9.304;2022-07-05T16:04:10;2.17;;;2.07;;
1533;SDS011;760;48.822;9.304;2022-07-05T16:06:35;1.70;;;1.70;;
1533;SDS011;760;48.822;9.304;2022-07-05T16:09:02;1.70;;;1.60;;
1533;SDS011;760;48.822;9.304;2022-07-05T16:11:28;2.00;;;1.90;;
1533;SDS011;760;48.822;9.304;2022-07-05T16:13:53;1.63;;;1.53;;
1533;SDS011;760;48.822;9.304;2022-07-05T16:16:19;2.83;;;2.20;;
1533;SDS011;760;48.822;9.304;2022-07-05T16:18:45;4.30;;;3.37;;
1533;SDS011;760;48.822;9.304;2022-07-05T16:21:13;1.90;;;1.80;;
1533;SDS011;760;48.822;9.304;2022-07-05T16:23:41;1.90;;;1.80;;
1533;SDS011;760;48.822;9.304;2022-07-05T16:26:09;1.40;;;1.40;;
1533;SDS011;760;48.822;9.304;2022-07-05T16:28:35;2.07;;;1.97;;
1533;SDS011;760;48.822;9.304;2022-07-05T16:31:02;1.90;;;1.80;;
1533;SDS011;760;48.822;9.304;2022-07-05T16:33:29;2.80;;;2.60;;
1533;SDS011;760;48.822;9.304;2022-07-05T16:36:03;2.87;;;2.57;;
1533;SDS011;760;48.822;9.304;2022-07-05T16:38:34;1.83;;;1.73;;
1533;SDS011;760;48.822;9.304;2022-07-05T16:41:01;2.33;;;2.10;;
1533;SDS011;760;48.822;9.304;2022-07-05T16:43:27;1.90;;;1.80;;
1533;SDS011;760;48.822;9.304;2022-07-05T16:45:53;2.20;;;2.10;;
1533;SDS011;760;48.822;9.304;2022-07-05T16:48:19;2.20;;;2.00;;
1533;SDS011;760;48.822;9.304;2022-07-05T16:50:46;3.57;;;3.27;;
1533;SDS011;760;48.822;9.304;2022-07-05T16:53:12;2.70;;;2.50;;
1533;SDS011;760;48.822;9.304;2022-07-05T16:55:38;1.80;;;1.70;;
1533;SDS011;760;48.822;9.304;2022-07-05T16:58:03;1.90;;;1.80;;
1533;SDS011;760;48.822;9.304;2022-07-05T17:00:29;1.83;;;1.73;;
1533;SDS011;760;48.822;9.304;2022-07-05T17:02:56;1.60;;;1.57;;
1533;SDS011;760;48.822;9.304;2022-07-05T17:05:22;1.83;;;1.67;;
1533;SDS011;760;48.822;9.304;2022-07-05T17:07:50;1.40;;;1.40;;
1533;SDS011;760;48.822;9.304;2022-07-05T17:10:16;3.93;;;3.63;;
1533;SDS011;760;48.822;9.304;2022-07-05T17:12:41;3.07;;;2.20;;
1533;SDS011;760;48.822;9.304;2022-07-05T17:15:07;1.60;;;1.50;;
1533;SDS011;760;48.822;9.304;2022-07-05T17:17:33;2.27;;;2.17;;
1533;SDS011;760;48.822;9.304;2022-07-05T17:20:00;1.93;;;1.83;;
1533;SDS011;760;48.822;9.304;2022-07-05T17:22:26;1.97;;;1.80;;
1533;SDS011;760;48.822;9.304;2022-07-05T17:24:52;2.13;;;1.93;;
1533;SDS011;760;48.822;9.304;2022-07-05T17:27:17;1.73;;;1.63;;
1533;SDS011;760;48.822;9.304;2022-07-05T17:29:43;1.63;;;1.53;;
1533;SDS011;760;48.822;9.304;2022-07-05T17:32:09;1.63;;;1.53;;
1533;SDS011;760;48.822;9.304;2022-07-05T17:34:34;1.73;;;1.63;;
1533;SDS011;760;48.822;9.304;2022-07-05T17:37:00;1.57;;;1.57;;
1533;SDS011;760;48.822;9.304;2022-07-05T17:39:26;1.70;;;1.60;;
1533;SDS011;760;48.822;9.304;2022-07-05T17:41:51;1.70;;;1.60;;
1533;SDS011;760;48.822;9.304;2022-07-05T17:44:17;1.77;;;1.67;;
1533;SDS011;760;48.822;9.304;2022-07-05T17:46:43;56.20;;;8.33;;
1533;SDS011;760;48.822;9.304;2022-07-05T17:49:08;85.47;;;12.00;;
1533;SDS011;760;48.822;9.304;2022-07-05T17:51:34;14.63;;;3.83;;
1533;SDS011;760;48.822;9.304;2022-07-05T17:54:00;7.53;;;2.70;;
1533;SDS011;760;48.822;9.304;2022-07-05T17:56:26;9.57;;;2.13;;
1533;SDS011;760;48.822;9.304;2022-07-05T17:58:51;7.30;;;2.27;;
1533;SDS011;760;48.822;9.304;2022-07-05T18:01:17;2.20;;;1.80;;
1533;SDS011;760;48.822;9.304;2022-07-05T18:03:43;2.10;;;1.90;;
1533;SDS011;760;48.822;9.304;2022-07-05T18:06:09;3.03;;;1.90;;
1533;SDS011;760;48.822;9.304;2022-07-05T18:08:34;5.70;;;1.90;;
1533;SDS011;760;48.822;9.304;2022-07-05T18:11:00;2.63;;;1.70;;
1533;SDS011;760;48.822;9.304;2022-07-05T18:13:26;2.77;;;1.70;;
1533;SDS011;760;48.822;9.304;2022-07-05T18:15:52;6.13;;;3.03;;
1533;SDS011;760;48.822;9.304;2022-07-05T18:18:19;4.60;;;2.03;;
1533;SDS011;760;48.822;9.304;2022-07-05T18:20:46;10.20;;;3.80;;
1533;SDS011;760;48.822;9.304;2022-07-05T18:23:12;4.23;;;2.23;;
1533;SDS011;760;48.822;9.304;2022-07-05T18:25:38;1.53;;;1.43;;
1533;SDS011;760;48.822;9.304;2022-07-05T18:28:07;1.70;;;1.60;;
1533;SDS011;760;48.822;9.304;2022-07-05T18:30:34;1.70;;;1.60;;
1533;SDS011;760;48.822;9.304;2022-07-05T18:33:01;2.03;;;1.93;;
1533;SDS011;760;48.822;9.304;2022-07-05T18:35:27;2.30;;;2.20;;
1533;SDS011;760;48.822;9.304;2022-07-05T18:37:52;2.07;;;1.77;;
1533;SDS011;760;48.822;9.304;2022-07-05T18:40:18;1.53;;;1.47;;
1533;SDS011;760;48.822;9.304;2022-07-05T18:42:44;1.80;;;1.70;;
1533;SDS011;760;48.822;9.304;2022-07-05T18:45:10;2.57;;;1.50;;
1533;SDS011;760;48.822;9.304;2022-07-05T18:47:36;1.60;;;1.50;;
1533;SDS011;760;48.822;9.304;2022-07-05T18:50:02;1.60;;;1.50;;
1533;SDS011;760;48.822;9.304;2022-07-05T18:52:28;1.87;;;1.77;;
1533;SDS011;760;48.822;9.304;2022-07-05T18:54:54;3.63;;;2.00;;
1533;SDS011;760;48.822;9.304;2022-07-05T18:57:20;3.70;;;1.53;;
1533;SDS011;760;48.822;9.304;2022-07-05T18:59:46;1.73;;;1.63;;
1533;SDS011;760;48.822;9.304;2022-07-05T19:02:12;1.47;;;1.37;;
1533;SDS011;760;48.822;9.304;2022-07-05T19:04:38;1.80;;;1.70;;
1533;SDS011;760;48.822;9.304;2022-07-05T19:07:04;1.20;;;1.20;;
1533;SDS011;760;48.822;9.304;2022-07-05T19:09:49;1.60;;;1.50;;
1533;SDS011;760;48.822;9.304;2022-07-05T19:12:33;1.87;;;1.77;;
1533;SDS011;760;48.822;9.304;2022-07-05T19:15:17;4.77;;;2.00;;
1533;SDS011;760;48.822;9.304;2022-07-05T19:17:43;1.77;;;1.67;;
1533;SDS011;760;48.822;9.304;2022-07-05T19:20:08;8.73;;;6.20;;
1533;SDS011;760;48.822;9.304;2022-07-05T19:22:34;12.20;;;8.70;;
1533;SDS011;760;48.822;9.304;2022-07-05T19:25:00;11.57;;;8.17;;
1533;SDS011;760;48.822;9.304;2022-07-05T19:27:26;8.37;;;7.50;;
1533;SDS011;760;48.822;9.304;2022-07-05T19:29:52;3.73;;;3.43;;
1533;SDS011;760;48.822;9.304;2022-07-05T19:32:18;2.73;;;2.43;;
1533;SDS011;760;48.822;9.304;2022-07-05T19:34:45;2.33;;;1.90;;
1533;SDS011;760;48.822;9.304;2022-07-05T19:37:11;1.80;;;1.70;;
1533;SDS011;760;48.822;9.304;2022-07-05T19:39:37;3.67;;;2.43;;
1533;SDS011;760;48.822;9.304;2022-07-05T19:42:03;3.17;;;2.23;;
1533;SDS011;760;48.822;9.304;2022-07-05T19:44:32;3.00;;;2.80;;
1533;SDS011;760;48.822;9.304;2022-07-05T19:46:58;1.80;;;1.63;;
1533;SDS011;760;48.822;9.304;2022-07-05T19:49:24;2.57;;;2.40;;
1533;SDS011;760;48.822;9.304;2022-07-05T19:51:49;2.03;;;1.90;;
1533;SDS011;760;48.822;9.304;2022-07-05T19:54:15;1.97;;;1.87;;
1533;SDS011;760;48.822;9.304;2022-07-05T19:56:41;2.10;;;2.00;;
1533;SDS011;760;48.822;9.304;2022-07-05T19:59:07;5.80;;;4.93;;